createdAt,value
2023-09-23T00:00:52.321Z,13.01
2023-09-23T00:03:21.109Z,13.02
2023-09-23T00:05:48.820Z,13.04
2023-09-23T00:08:19.745Z,13.03
2023-09-23T00:10:47.397Z,13.03
2023-09-23T00:13:15.490Z,13.03
2023-09-23T00:15:43.676Z,13.03
2023-09-23T00:18:12.324Z,13.03
2023-09-23T00:20:42.239Z,13.05
2023-09-23T00:23:09.823Z,13.06
2023-09-23T00:25:38.319Z,13.06
2023-09-23T00:28:09.528Z,13.08
2023-09-23T00:30:37.461Z,13.07
2023-09-23T00:33:05.139Z,13.06
2023-09-23T00:35:35.596Z,13.06
2023-09-23T00:38:03.559Z,13.04
2023-09-23T00:40:33.966Z,13.02
2023-09-23T00:43:01.720Z,13.00
2023-09-23T00:45:30.736Z,12.96
2023-09-23T00:47:58.484Z,12.91
2023-09-23T00:50:26.102Z,12.88
2023-09-23T00:52:54.250Z,12.86
2023-09-23T00:55:22.120Z,12.86
2023-09-23T00:57:54.182Z,12.87
2023-09-23T01:00:26.625Z,12.88
2023-09-23T01:02:57.335Z,12.88
2023-09-23T01:05:28.689Z,12.89
2023-09-23T01:07:56.399Z,12.88
2023-09-23T01:10:24.472Z,12.90
2023-09-23T01:12:52.289Z,12.89
2023-09-23T01:15:22.101Z,12.89
2023-09-23T01:17:51.861Z,12.89
2023-09-23T01:20:19.482Z,12.89
2023-09-23T01:22:47.339Z,12.90
2023-09-23T01:25:14.957Z,12.89
2023-09-23T01:27:42.896Z,12.88
2023-09-23T01:30:13.712Z,12.88
2023-09-23T01:32:41.501Z,12.87
2023-09-23T01:35:10.671Z,12.87
2023-09-23T01:37:39.198Z,12.86
2023-09-23T01:40:07.492Z,12.82
2023-09-23T01:42:36.785Z,12.78
2023-09-23T01:45:05.977Z,12.71
2023-09-23T01:47:33.638Z,12.66
2023-09-23T01:50:01.623Z,12.61
2023-09-23T01:52:30.493Z,12.56
2023-09-23T01:54:58.077Z,12.52
2023-09-23T01:57:26.098Z,12.49
2023-09-23T01:59:53.593Z,12.45
2023-09-23T02:02:21.434Z,12.41
2023-09-23T02:04:49.763Z,12.37
2023-09-23T02:07:17.282Z,12.34
2023-09-23T02:09:44.879Z,12.31
2023-09-23T02:12:13.844Z,12.29
2023-09-23T02:14:41.416Z,12.27
2023-09-23T02:17:09.622Z,12.24
2023-09-23T02:19:37.521Z,12.23
2023-09-23T02:22:07.054Z,12.20
2023-09-23T02:24:34.800Z,12.18
2023-09-23T02:27:02.371Z,12.15
2023-09-23T02:29:30.782Z,12.13
2023-09-23T02:31:58.601Z,12.11
2023-09-23T02:34:26.149Z,12.08
2023-09-23T02:36:54.227Z,12.05
2023-09-23T02:39:21.868Z,12.03
2023-09-23T02:41:49.769Z,12.00
2023-09-23T02:44:20.195Z,12.00
2023-09-23T02:46:47.930Z,11.99
2023-09-23T02:49:15.631Z,11.98
2023-09-23T02:51:44.142Z,11.95
2023-09-23T02:54:12.414Z,11.93
2023-09-23T02:56:39.925Z,11.92
2023-09-23T02:59:14.708Z,11.89
2023-09-23T03:01:46.569Z,11.89
2023-09-23T03:04:21.105Z,11.92
2023-09-23T03:06:50.936Z,11.96
2023-09-23T03:09:18.681Z,12.00
2023-09-23T03:11:50.495Z,12.03
2023-09-23T03:14:23.712Z,12.11
2023-09-23T03:16:52.926Z,12.14
2023-09-23T03:19:26.132Z,12.13
2023-09-23T03:21:57.453Z,12.13
2023-09-23T03:24:27.339Z,12.15
2023-09-23T03:26:55.400Z,12.15
2023-09-23T03:29:23.893Z,12.17
2023-09-23T03:31:51.576Z,12.21
2023-09-23T03:34:19.159Z,12.26
2023-09-23T03:36:48.094Z,12.32
2023-09-23T03:39:16.919Z,12.39
2023-09-23T03:41:48.004Z,12.47
2023-09-23T03:44:16.829Z,12.52
2023-09-23T03:46:44.467Z,12.55
2023-09-23T03:49:12.605Z,12.55
2023-09-23T03:51:40.273Z,12.57
2023-09-23T03:54:07.810Z,12.59
2023-09-23T03:56:35.710Z,12.61
2023-09-23T03:59:08.192Z,12.65
2023-09-23T04:01:37.736Z,12.68
2023-09-23T04:04:07.689Z,12.67
2023-09-23T04:06:35.518Z,12.68
2023-09-23T04:09:03.176Z,12.67
2023-09-23T04:11:30.872Z,12.70
2023-09-23T04:13:58.517Z,12.73
2023-09-23T04:16:27.099Z,12.79
2023-09-23T04:18:54.729Z,12.83
2023-09-23T04:21:26.252Z,12.85
2023-09-23T04:23:54.639Z,12.85
2023-09-23T04:26:25.549Z,12.80
2023-09-23T04:28:53.972Z,12.73
2023-09-23T04:31:25.283Z,12.72
2023-09-23T04:33:53.608Z,12.71
2023-09-23T04:36:22.516Z,12.69
2023-09-23T04:38:50.252Z,12.66
2023-09-23T04:41:17.788Z,12.63
2023-09-23T04:43:45.556Z,12.61
2023-09-23T04:46:16.119Z,12.57
2023-09-23T04:48:43.999Z,12.55
2023-09-23T04:51:12.531Z,12.53
2023-09-23T04:53:40.091Z,12.50
2023-09-23T04:56:11.455Z,12.48
2023-09-23T04:58:39.058Z,12.47
2023-09-23T05:01:07.090Z,12.51
2023-09-23T05:03:37.955Z,12.53
2023-09-23T05:06:06.662Z,12.57
2023-09-23T05:08:34.519Z,12.59
2023-09-23T05:11:02.749Z,12.60
2023-09-23T05:13:31.367Z,12.62
2023-09-23T05:15:59.489Z,12.67
2023-09-23T05:18:27.093Z,12.71
2023-09-23T05:20:54.811Z,12.73
2023-09-23T05:23:24.430Z,12.77
2023-09-23T05:25:52.114Z,12.79
2023-09-23T05:28:21.168Z,12.81
2023-09-23T05:30:48.762Z,12.85
2023-09-23T05:33:16.346Z,12.86
2023-09-23T05:35:43.925Z,12.90
2023-09-23T05:38:13.395Z,12.96
2023-09-23T05:40:41.966Z,12.99
2023-09-23T05:43:12.685Z,13.03
2023-09-23T05:45:40.273Z,13.09
2023-09-23T05:48:07.913Z,13.11
2023-09-23T05:50:36.577Z,13.13
2023-09-23T05:53:04.292Z,13.17
2023-09-23T05:55:33.145Z,13.19
2023-09-23T05:58:01.023Z,13.21
2023-09-23T06:00:28.596Z,13.24
2023-09-23T06:02:56.226Z,13.26
2023-09-23T06:05:25.720Z,13.29
2023-09-23T06:07:55.630Z,13.33
2023-09-23T06:10:23.257Z,13.34
2023-09-23T06:12:51.354Z,13.37
2023-09-23T06:15:18.958Z,13.41
2023-09-23T06:17:47.413Z,13.43
2023-09-23T06:20:15.103Z,13.45
2023-09-23T06:22:42.767Z,13.46
2023-09-23T06:25:10.305Z,13.48
2023-09-23T06:27:38.165Z,13.52
2023-09-23T06:30:05.715Z,13.53
2023-09-23T06:32:33.265Z,13.51
2023-09-23T06:35:00.926Z,13.47
2023-09-23T06:37:28.519Z,13.46
2023-09-23T06:39:56.106Z,13.45
2023-09-23T06:42:23.711Z,13.48
2023-09-23T06:44:51.274Z,13.52
2023-09-23T06:47:18.980Z,13.59
2023-09-23T06:49:46.646Z,13.67
2023-09-23T06:52:14.287Z,13.73
2023-09-23T06:54:41.880Z,13.82
2023-09-23T06:57:10.270Z,13.85
2023-09-23T06:59:37.837Z,13.90
2023-09-23T07:02:05.613Z,13.93
2023-09-23T07:04:33.393Z,13.94
2023-09-23T07:07:01.107Z,13.98
2023-09-23T07:09:29.472Z,14.03
2023-09-23T07:11:57.157Z,14.06
2023-09-23T07:14:24.888Z,14.08
2023-09-23T07:16:52.699Z,14.10
2023-09-23T07:19:20.860Z,14.09
2023-09-23T07:21:48.529Z,14.16
2023-09-23T07:24:16.118Z,14.29
2023-09-23T07:26:43.717Z,14.39
2023-09-23T07:29:11.417Z,14.45
2023-09-23T07:31:39.110Z,14.51
2023-09-23T07:34:06.783Z,14.59
2023-09-23T07:36:34.423Z,14.69
2023-09-23T07:39:02.090Z,14.79
2023-09-23T07:41:30.328Z,14.81
2023-09-23T07:43:58.343Z,14.74
2023-09-23T07:46:26.157Z,14.79
2023-09-23T07:48:53.815Z,14.79
2023-09-23T07:51:21.451Z,14.82
2023-09-23T07:53:49.111Z,14.85
2023-09-23T07:56:16.810Z,14.90
2023-09-23T07:58:44.467Z,14.96
2023-09-23T08:01:12.150Z,15.07
2023-09-23T08:03:39.928Z,15.23
2023-09-23T08:06:07.595Z,15.50
2023-09-23T08:08:35.618Z,15.58
2023-09-23T08:11:04.289Z,15.52
2023-09-23T08:13:32.256Z,15.41
2023-09-23T08:16:00.044Z,15.34
2023-09-23T08:18:27.870Z,15.41
2023-09-23T08:20:55.659Z,15.55
2023-09-23T08:23:23.824Z,15.75
2023-09-23T08:25:51.706Z,15.99
2023-09-23T08:28:19.394Z,16.10
2023-09-23T08:30:50.125Z,16.17
2023-09-23T08:33:19.236Z,16.15
2023-09-23T08:35:46.962Z,16.08
2023-09-23T08:38:14.664Z,16.00
2023-09-23T08:40:42.377Z,16.01
2023-09-23T08:43:10.027Z,16.11
2023-09-23T08:45:39.124Z,16.16
2023-09-23T08:48:06.965Z,16.18
2023-09-23T08:50:34.644Z,16.27
2023-09-23T08:53:02.292Z,16.31
2023-09-23T08:55:30.005Z,16.38
2023-09-23T08:58:03.215Z,16.46
2023-09-23T09:00:32.129Z,16.48
2023-09-23T09:02:59.813Z,16.36
2023-09-23T09:05:27.654Z,16.23
2023-09-23T09:07:55.888Z,16.13
2023-09-23T09:10:26.815Z,15.99
2023-09-23T09:12:56.465Z,16.02
2023-09-23T09:15:27.776Z,16.14
2023-09-23T09:17:55.482Z,16.22
2023-09-23T09:20:23.343Z,16.28
2023-09-23T09:22:51.761Z,16.30
2023-09-23T09:25:22.110Z,16.25
2023-09-23T09:27:49.866Z,16.23
2023-09-23T09:30:18.043Z,16.22
2023-09-23T09:32:46.241Z,16.19
2023-09-23T09:35:13.931Z,16.23
2023-09-23T09:37:41.818Z,16.30
2023-09-23T09:40:10.428Z,16.41
2023-09-23T09:42:38.270Z,16.56
2023-09-23T09:45:06.719Z,16.73
2023-09-23T09:47:34.574Z,16.80
2023-09-23T09:50:04.936Z,16.81
2023-09-23T09:52:32.728Z,16.89
2023-09-23T09:55:00.666Z,17.03
2023-09-23T09:57:30.498Z,17.02
2023-09-23T09:59:58.229Z,17.07
2023-09-23T10:02:26.107Z,17.33
2023-09-23T10:04:55.018Z,17.75
2023-09-23T10:07:24.643Z,18.07
2023-09-23T10:09:55.162Z,18.05
2023-09-23T10:12:26.306Z,17.92
2023-09-23T10:14:54.111Z,18.40
2023-09-23T10:17:21.913Z,19.01
2023-09-23T10:19:50.601Z,19.63
2023-09-23T10:22:21.831Z,20.38
2023-09-23T10:24:49.987Z,21.19
2023-09-23T10:27:18.568Z,22.08
2023-09-23T10:29:47.007Z,22.68
2023-09-23T10:32:16.422Z,22.80
2023-09-23T10:37:12.919Z,22.30
2023-09-23T10:39:40.565Z,22.20
2023-09-23T10:42:08.321Z,21.85
2023-09-23T10:44:36.096Z,21.59
2023-09-23T10:47:03.746Z,21.30
2023-09-23T10:49:31.457Z,20.86
2023-09-23T10:51:59.180Z,20.30
2023-09-23T10:54:27.262Z,19.84
2023-09-23T10:56:55.094Z,19.47
2023-09-23T10:59:22.803Z,19.10
2023-09-23T11:01:51.065Z,18.84
2023-09-23T11:04:20.130Z,18.60
2023-09-23T11:06:47.833Z,18.38
2023-09-23T11:09:15.882Z,18.21
2023-09-23T11:11:43.958Z,18.02
2023-09-23T11:14:11.634Z,17.85
2023-09-23T11:16:39.636Z,17.70
2023-09-23T11:19:07.502Z,17.61
2023-09-23T11:21:35.293Z,17.76
2023-09-23T11:24:05.900Z,18.01
2023-09-23T11:26:34.823Z,18.97
2023-09-23T11:29:02.569Z,20.28
2023-09-23T11:31:30.298Z,21.41
2023-09-23T11:33:58.256Z,21.82
2023-09-23T11:36:27.041Z,22.42
2023-09-23T11:38:55.366Z,23.09
2023-09-23T11:41:23.245Z,23.67
2023-09-23T11:43:51.812Z,24.22
2023-09-23T11:46:22.271Z,24.67
2023-09-23T11:48:50.663Z,25.18
2023-09-23T11:51:19.467Z,25.47
2023-09-23T11:53:47.270Z,25.06
2023-09-23T11:56:16.968Z,25.13
2023-09-23T11:58:54.552Z,24.66
2023-09-23T12:01:29.848Z,24.67
2023-09-23T12:03:59.781Z,24.88
2023-09-23T12:06:27.619Z,25.04
2023-09-23T12:08:55.536Z,25.10
2023-09-23T12:11:23.402Z,25.16
2023-09-23T12:13:53.605Z,25.10
2023-09-23T12:16:21.433Z,25.29
2023-09-23T12:18:49.903Z,25.35
2023-09-23T12:21:18.042Z,25.30
2023-09-23T12:23:45.823Z,25.16
2023-09-23T12:26:16.603Z,25.27
2023-09-23T12:28:45.899Z,25.32
2023-09-23T12:31:16.926Z,25.34
2023-09-23T12:33:44.656Z,25.34
2023-09-23T12:36:13.162Z,25.47
2023-09-23T12:38:40.921Z,25.30
2023-09-23T12:41:08.607Z,25.19
2023-09-23T12:43:39.644Z,25.11
2023-09-23T12:46:07.339Z,24.71
2023-09-23T12:48:35.053Z,24.10
2023-09-23T12:51:02.808Z,23.21
2023-09-23T12:53:31.383Z,22.35
2023-09-23T12:55:59.094Z,21.58
2023-09-23T12:58:26.846Z,20.98
2023-09-23T13:00:54.615Z,20.57
2023-09-23T13:03:22.595Z,20.12
2023-09-23T13:05:50.521Z,19.84
2023-09-23T13:08:18.272Z,20.01
2023-09-23T13:10:45.967Z,20.28
2023-09-23T13:13:13.673Z,20.54
2023-09-23T13:15:42.307Z,20.82
2023-09-23T13:18:10.960Z,20.95
2023-09-23T13:20:38.903Z,20.66
2023-09-23T13:23:08.913Z,20.26
2023-09-23T13:25:36.891Z,20.24
2023-09-23T13:28:04.892Z,20.14
2023-09-23T13:30:32.594Z,20.20
2023-09-23T13:33:00.363Z,20.30
2023-09-23T13:35:28.218Z,20.39
2023-09-23T13:37:55.905Z,20.67
2023-09-23T13:40:23.585Z,20.90
2023-09-23T13:42:51.734Z,20.75
2023-09-23T13:45:19.650Z,20.46
2023-09-23T13:47:47.725Z,20.06
2023-09-23T13:50:15.992Z,19.78
2023-09-23T13:52:43.871Z,19.61
2023-09-23T13:55:12.068Z,19.82
2023-09-23T13:57:39.863Z,20.11
2023-09-23T14:00:09.363Z,20.62
2023-09-23T14:02:37.175Z,20.85
2023-09-23T14:05:06.053Z,20.79
2023-09-23T14:07:34.153Z,20.72
2023-09-23T14:10:14.783Z,20.53
2023-09-23T14:12:48.927Z,20.28
2023-09-23T14:15:16.663Z,20.07
2023-09-23T14:17:44.521Z,19.82
2023-09-23T14:20:14.413Z,19.52
2023-09-23T14:22:45.071Z,19.21
2023-09-23T14:25:12.813Z,18.96
2023-09-23T14:27:40.660Z,18.80
2023-09-23T14:30:09.627Z,18.69
2023-09-23T14:32:37.425Z,18.61
2023-09-23T14:35:05.224Z,18.57
2023-09-23T14:37:33.031Z,18.53
2023-09-23T14:40:01.597Z,18.52
2023-09-23T14:42:29.757Z,18.56
2023-09-23T14:44:57.422Z,18.61
2023-09-23T14:47:25.417Z,18.70
2023-09-23T14:49:53.573Z,19.05
2023-09-23T14:52:21.522Z,19.51
2023-09-23T14:54:49.592Z,20.04
2023-09-23T14:57:17.722Z,20.03
2023-09-23T14:59:45.452Z,19.81
2023-09-23T15:02:13.394Z,19.48
2023-09-23T15:04:41.405Z,19.16
2023-09-23T15:07:09.181Z,18.87
2023-09-23T15:09:36.966Z,18.60
2023-09-23T15:12:04.803Z,18.39
2023-09-23T15:14:32.547Z,18.19
2023-09-23T15:17:00.568Z,18.04
2023-09-23T15:19:28.411Z,17.92
2023-09-23T15:21:56.427Z,17.81
2023-09-23T15:24:24.318Z,17.69
2023-09-23T15:26:52.220Z,17.60
2023-09-23T15:29:20.278Z,17.54
2023-09-23T15:31:48.259Z,17.54
2023-09-23T15:34:16.285Z,17.86
2023-09-23T15:36:44.112Z,18.05
2023-09-23T15:39:12.228Z,18.12
2023-09-23T15:41:40.782Z,18.10
2023-09-23T15:44:08.511Z,17.99
2023-09-23T15:46:36.827Z,17.88
2023-09-23T15:49:04.605Z,17.75
2023-09-23T15:51:32.709Z,17.63
2023-09-23T15:54:00.436Z,17.53
2023-09-23T15:56:28.255Z,17.45
2023-09-23T15:58:55.913Z,17.39
2023-09-23T16:01:24.013Z,17.31
2023-09-23T16:03:51.979Z,17.24
2023-09-23T16:06:19.899Z,17.17
2023-09-23T16:08:47.928Z,17.12
2023-09-23T16:11:15.895Z,17.05
2023-09-23T16:13:43.770Z,17.01
2023-09-23T16:16:11.827Z,16.96
2023-09-23T16:18:39.783Z,16.89
2023-09-23T16:21:07.592Z,16.83
2023-09-23T16:23:35.983Z,16.77
2023-09-23T16:26:03.780Z,16.68
2023-09-23T16:28:31.599Z,16.52
2023-09-23T16:31:00.051Z,16.37
2023-09-23T16:33:28.835Z,16.26
2023-09-23T16:35:56.603Z,16.19
2023-09-23T16:38:24.361Z,16.17
2023-09-23T16:40:52.186Z,16.17
2023-09-23T16:43:20.253Z,16.18
2023-09-23T16:45:51.085Z,16.20
2023-09-23T16:48:19.018Z,16.23
2023-09-23T16:50:47.412Z,16.25
2023-09-23T16:53:15.395Z,16.28
2023-09-23T16:55:44.321Z,16.30
2023-09-23T16:58:12.908Z,16.30
2023-09-23T17:00:44.310Z,16.31
2023-09-23T17:03:12.487Z,16.31
2023-09-23T17:05:40.299Z,16.31
2023-09-23T17:08:08.869Z,16.30
2023-09-23T17:10:36.808Z,16.31
2023-09-23T17:13:04.572Z,16.29
2023-09-23T17:15:32.262Z,16.28
2023-09-23T17:18:01.968Z,16.29
2023-09-23T17:20:31.124Z,16.28
2023-09-23T17:22:58.827Z,16.25
2023-09-23T17:25:27.153Z,16.22
2023-09-23T17:27:55.112Z,16.17
2023-09-23T17:30:23.470Z,16.13
2023-09-23T17:32:52.113Z,16.08
2023-09-23T17:35:20.663Z,16.04
2023-09-23T17:37:48.469Z,15.98
2023-09-23T17:40:16.577Z,15.96
2023-09-23T17:42:44.397Z,15.92
2023-09-23T17:45:12.180Z,15.90
2023-09-23T17:47:39.993Z,15.86
2023-09-23T17:50:07.904Z,15.84
2023-09-23T17:52:36.245Z,15.84
2023-09-23T17:55:04.380Z,15.81
2023-09-23T17:57:34.194Z,15.78
2023-09-23T18:00:01.932Z,15.75
2023-09-23T18:02:29.953Z,15.75
2023-09-23T18:04:57.907Z,15.73
2023-09-23T18:07:25.827Z,15.70
2023-09-23T18:09:53.609Z,15.69
2023-09-23T18:12:21.480Z,15.67
2023-09-23T18:14:50.057Z,15.67
2023-09-23T18:17:17.987Z,15.65
2023-09-23T18:19:45.908Z,15.65
2023-09-23T18:22:14.687Z,15.63
2023-09-23T18:24:49.861Z,15.62
2023-09-23T18:27:18.406Z,15.60
2023-09-23T18:29:47.563Z,15.59
2023-09-23T18:32:16.969Z,15.59
2023-09-23T18:34:44.919Z,15.57
2023-09-23T18:37:12.792Z,15.55
2023-09-23T18:39:40.656Z,15.55
2023-09-23T18:42:08.477Z,15.54
2023-09-23T18:44:38.242Z,15.53
2023-09-23T18:47:08.865Z,15.52
2023-09-23T18:49:36.773Z,15.51
2023-09-23T18:52:04.576Z,15.50
2023-09-23T18:54:33.192Z,15.50
2023-09-23T18:57:01.431Z,15.49
2023-09-23T18:59:29.674Z,15.49
2023-09-23T19:01:57.741Z,15.49
2023-09-23T19:04:25.565Z,15.49
2023-09-23T19:06:53.328Z,15.49
2023-09-23T19:09:22.912Z,15.48
2023-09-23T19:11:50.800Z,15.48
2023-09-23T19:14:20.092Z,15.48
2023-09-23T19:16:48.054Z,15.47
2023-09-23T19:19:19.254Z,15.47
2023-09-23T19:21:46.987Z,15.45
2023-09-23T19:24:19.488Z,15.43
2023-09-23T19:26:56.601Z,15.42
2023-09-23T19:29:27.766Z,15.39
2023-09-23T19:32:00.431Z,15.38
2023-09-23T19:34:28.483Z,15.37
2023-09-23T19:36:58.606Z,15.35
2023-09-23T19:39:28.167Z,15.34
2023-09-23T19:41:56.158Z,15.32
2023-09-23T19:44:25.079Z,15.30
2023-09-23T19:46:53.203Z,15.26
2023-09-23T19:49:21.084Z,15.19
2023-09-23T19:51:49.437Z,15.10
2023-09-23T19:54:17.580Z,15.00
2023-09-23T19:56:46.029Z,14.92
2023-09-23T19:59:13.923Z,14.87
2023-09-23T20:01:42.808Z,14.85
2023-09-23T20:04:11.132Z,14.82
2023-09-23T20:06:38.955Z,14.83
2023-09-23T20:09:07.898Z,14.81
2023-09-23T20:11:35.772Z,14.79
2023-09-23T20:14:03.409Z,14.76
2023-09-23T20:16:33.279Z,14.74
2023-09-23T20:19:03.021Z,14.71
2023-09-23T20:21:31.803Z,14.70
2023-09-23T20:24:00.055Z,14.69
2023-09-23T20:26:28.886Z,14.66
2023-09-23T20:28:56.651Z,14.63
2023-09-23T20:31:24.531Z,14.62
2023-09-23T20:33:52.519Z,14.62
2023-09-23T20:36:25.398Z,14.62
2023-09-23T20:38:54.200Z,14.62
2023-09-23T20:41:22.073Z,14.63
2023-09-23T20:43:51.300Z,14.65
2023-09-23T20:46:21.172Z,14.64
2023-09-23T20:48:48.981Z,14.65
2023-09-23T20:51:17.820Z,14.68
2023-09-23T20:53:46.279Z,14.67
2023-09-23T20:56:14.724Z,14.68
2023-09-23T20:58:43.827Z,14.68
2023-09-23T21:01:11.559Z,14.70
2023-09-23T21:03:39.405Z,14.70
2023-09-23T21:06:08.218Z,14.72
2023-09-23T21:08:36.342Z,14.74
2023-09-23T21:11:04.034Z,14.75
2023-09-23T21:13:31.811Z,14.76
2023-09-23T21:16:00.351Z,14.79
2023-09-23T21:18:31.028Z,14.81
2023-09-23T21:20:58.857Z,14.82
2023-09-23T21:23:30.574Z,14.85
2023-09-23T21:25:58.424Z,14.85
2023-09-23T21:28:26.627Z,14.88
2023-09-23T21:30:54.884Z,14.88
2023-09-23T21:33:22.689Z,14.90
2023-09-23T21:35:50.849Z,14.89
2023-09-23T21:38:18.820Z,14.89
2023-09-23T21:40:46.504Z,14.90
2023-09-23T21:43:14.288Z,14.91
2023-09-23T21:45:42.156Z,14.92
2023-09-23T21:48:11.321Z,14.95
2023-09-23T21:50:39.068Z,14.95
2023-09-23T21:53:07.246Z,14.96
2023-09-23T21:55:34.941Z,14.95
2023-09-23T21:58:02.629Z,14.93
2023-09-23T22:00:30.934Z,14.90
2023-09-23T22:02:59.019Z,14.86
2023-09-23T22:05:26.983Z,14.82
2023-09-23T22:07:54.810Z,14.81
2023-09-23T22:10:22.576Z,14.79
2023-09-23T22:12:50.782Z,14.81
2023-09-23T22:15:18.925Z,14.83
2023-09-23T22:17:46.851Z,14.87
2023-09-23T22:20:16.555Z,14.88
2023-09-23T22:22:44.726Z,14.90
2023-09-23T22:25:16.403Z,14.91
2023-09-23T22:27:46.726Z,14.93
2023-09-23T22:30:18.339Z,14.94
2023-09-23T22:32:46.452Z,14.93
2023-09-23T22:35:15.220Z,14.94
2023-09-23T22:37:42.938Z,14.93
2023-09-23T22:40:15.117Z,14.92
2023-09-23T22:42:45.101Z,14.88
2023-09-23T22:45:23.646Z,14.86
2023-09-23T22:48:00.634Z,14.81
2023-09-23T22:50:29.050Z,14.75
2023-09-23T22:52:57.394Z,14.70
2023-09-23T22:55:25.922Z,14.64
2023-09-23T22:57:53.959Z,14.58
2023-09-23T23:00:26.961Z,14.54
2023-09-23T23:02:55.594Z,14.45
2023-09-23T23:05:26.361Z,14.39
2023-09-23T23:07:54.401Z,14.34
2023-09-23T23:10:22.001Z,14.27
2023-09-23T23:12:49.612Z,14.23
2023-09-23T23:15:17.328Z,14.18
2023-09-23T23:17:45.877Z,14.14
2023-09-23T23:20:16.104Z,14.09
2023-09-23T23:22:44.661Z,14.06
2023-09-23T23:25:12.439Z,14.01
2023-09-23T23:27:40.857Z,13.98
2023-09-23T23:30:09.424Z,13.94
2023-09-23T23:32:39.285Z,13.88
2023-09-23T23:35:06.892Z,13.84
2023-09-23T23:37:36.885Z,13.78
2023-09-23T23:40:05.848Z,13.74
2023-09-23T23:42:35.190Z,13.70
2023-09-23T23:45:03.234Z,13.67
2023-09-23T23:47:30.849Z,13.66
2023-09-23T23:49:59.882Z,13.63
2023-09-23T23:52:30.089Z,13.61
2023-09-23T23:54:58.198Z,13.56
2023-09-23T23:57:26.421Z,13.54
2023-09-23T23:59:54.659Z,13.51
